sensor_id;sensor_type;location;lat;lon;timestamp;P1;durP1;ratioP1;P2;durP2;ratioP2
57551;SDS011;43379;48.160;14.036;2022-12-07T00:03:47;17.60;;;14.27;;
57551;SDS011;43379;48.160;14.036;2022-12-07T00:06:14;19.10;;;15.40;;
57551;SDS011;43379;48.160;14.036;2022-12-07T00:08:41;19.80;;;15.60;;
57551;SDS011;43379;48.160;14.036;2022-12-07T00:11:11;17.47;;;15.30;;
57551;SDS011;43379;48.160;14.036;2022-12-07T00:13:39;22.47;;;14.93;;
57551;SDS011;43379;48.160;14.036;2022-12-07T00:16:07;19.50;;;15.13;;
57551;SDS011;43379;48.160;14.036;2022-12-07T00:18:35;21.87;;;17.13;;
57551;SDS011;43379;48.160;14.036;2022-12-07T00:21:02;22.57;;;14.70;;
57551;SDS011;43379;48.160;14.036;2022-12-07T00:23:29;19.13;;;15.27;;
57551;SDS011;43379;48.160;14.036;2022-12-07T00:25:55;18.30;;;14.80;;
57551;SDS011;43379;48.160;14.036;2022-12-07T00:28:21;20.43;;;15.50;;
57551;SDS011;43379;48.160;14.036;2022-12-07T00:30:47;20.27;;;14.70;;
57551;SDS011;43379;48.160;14.036;2022-12-07T00:33:12;21.00;;;15.20;;
57551;SDS011;43379;48.160;14.036;2022-12-07T00:35:38;17.87;;;14.50;;
57551;SDS011;43379;48.160;14.036;2022-12-07T00:38:04;23.57;;;15.73;;
57551;SDS011;43379;48.160;14.036;2022-12-07T00:40:29;19.70;;;14.13;;
57551;SDS011;43379;48.160;14.036;2022-12-07T00:42:55;17.20;;;14.47;;
57551;SDS011;43379;48.160;14.036;2022-12-07T00:45:20;15.67;;;13.70;;
57551;SDS011;43379;48.160;14.036;2022-12-07T00:47:46;19.00;;;14.73;;
57551;SDS011;43379;48.160;14.036;2022-12-07T00:50:12;16.63;;;14.27;;
57551;SDS011;43379;48.160;14.036;2022-12-07T00:52:37;19.27;;;14.63;;
57551;SDS011;43379;48.160;14.036;2022-12-07T00:55:03;15.27;;;13.27;;
57551;SDS011;43379;48.160;14.036;2022-12-07T00:57:30;24.23;;;16.43;;
57551;SDS011;43379;48.160;14.036;2022-12-07T00:59:55;15.93;;;12.90;;
57551;SDS011;43379;48.160;14.036;2022-12-07T01:02:22;18.60;;;14.90;;
57551;SDS011;43379;48.160;14.036;2022-12-07T01:04:48;15.97;;;13.67;;
57551;SDS011;43379;48.160;14.036;2022-12-07T01:07:14;20.20;;;14.20;;
57551;SDS011;43379;48.160;14.036;2022-12-07T01:09:40;17.77;;;13.60;;
57551;SDS011;43379;48.160;14.036;2022-12-07T01:12:05;18.40;;;14.63;;
57551;SDS011;43379;48.160;14.036;2022-12-07T01:14:31;15.20;;;12.67;;
57551;SDS011;43379;48.160;14.036;2022-12-07T01:16:57;16.67;;;13.33;;
57551;SDS011;43379;48.160;14.036;2022-12-07T01:19:22;16.10;;;13.50;;
57551;SDS011;43379;48.160;14.036;2022-12-07T01:21:48;15.73;;;12.87;;
57551;SDS011;43379;48.160;14.036;2022-12-07T01:24:13;17.80;;;12.47;;
57551;SDS011;43379;48.160;14.036;2022-12-07T01:26:39;14.20;;;11.83;;
57551;SDS011;43379;48.160;14.036;2022-12-07T01:29:06;19.00;;;14.30;;
57551;SDS011;43379;48.160;14.036;2022-12-07T01:31:31;15.63;;;13.37;;
57551;SDS011;43379;48.160;14.036;2022-12-07T01:33:58;14.47;;;12.63;;
57551;SDS011;43379;48.160;14.036;2022-12-07T01:36:25;17.57;;;13.60;;
57551;SDS011;43379;48.160;14.036;2022-12-07T01:38:55;14.73;;;12.50;;
57551;SDS011;43379;48.160;14.036;2022-12-07T01:41:27;14.30;;;12.47;;
57551;SDS011;43379;48.160;14.036;2022-12-07T01:44:07;16.60;;;13.00;;
57551;SDS011;43379;48.160;14.036;2022-12-07T01:46:33;15.63;;;12.77;;
57551;SDS011;43379;48.160;14.036;2022-12-07T01:48:58;14.87;;;13.20;;
57551;SDS011;43379;48.160;14.036;2022-12-07T01:51:25;14.63;;;12.27;;
57551;SDS011;43379;48.160;14.036;2022-12-07T01:53:51;14.83;;;11.70;;
57551;SDS011;43379;48.160;14.036;2022-12-07T01:56:18;14.37;;;12.87;;
57551;SDS011;43379;48.160;14.036;2022-12-07T01:58:48;15.57;;;12.23;;
57551;SDS011;43379;48.160;14.036;2022-12-07T02:01:16;18.53;;;13.20;;
57551;SDS011;43379;48.160;14.036;2022-12-07T02:03:42;14.87;;;12.77;;
57551;SDS011;43379;48.160;14.036;2022-12-07T02:06:10;16.20;;;12.70;;
57551;SDS011;43379;48.160;14.036;2022-12-07T02:08:39;16.40;;;13.83;;
57551;SDS011;43379;48.160;14.036;2022-12-07T02:11:06;17.97;;;13.80;;
57551;SDS011;43379;48.160;14.036;2022-12-07T02:13:33;17.50;;;13.50;;
57551;SDS011;43379;48.160;14.036;2022-12-07T02:19:07;14.03;;;11.40;;
57551;SDS011;43379;48.160;14.036;2022-12-07T02:22:03;14.70;;;13.03;;
57551;SDS011;43379;48.160;14.036;2022-12-07T02:24:56;14.50;;;12.90;;
57551;SDS011;43379;48.160;14.036;2022-12-07T02:27:46;14.10;;;11.80;;
57551;SDS011;43379;48.160;14.036;2022-12-07T02:30:19;15.57;;;11.90;;
57551;SDS011;43379;48.160;14.036;2022-12-07T02:35:34;13.77;;;12.07;;
57551;SDS011;43379;48.160;14.036;2022-12-07T02:38:04;12.60;;;10.60;;
57551;SDS011;43379;48.160;14.036;2022-12-07T02:43:13;12.10;;;10.80;;
57551;SDS011;43379;48.160;14.036;2022-12-07T02:45:46;13.33;;;11.97;;
57551;SDS011;43379;48.160;14.036;2022-12-07T02:48:16;12.50;;;11.17;;
57551;SDS011;43379;48.160;14.036;2022-12-07T02:50:50;12.53;;;11.23;;
57551;SDS011;43379;48.160;14.036;2022-12-07T02:53:34;13.67;;;12.30;;
57551;SDS011;43379;48.160;14.036;2022-12-07T03:13:03;12.67;;;11.10;;
57551;SDS011;43379;48.160;14.036;2022-12-07T03:15:55;11.80;;;10.70;;
57551;SDS011;43379;48.160;14.036;2022-12-07T03:18:31;11.90;;;10.70;;
57551;SDS011;43379;48.160;14.036;2022-12-07T03:21:02;9.63;;;8.63;;
57551;SDS011;43379;48.160;14.036;2022-12-07T03:23:31;9.90;;;8.90;;
57551;SDS011;43379;48.160;14.036;2022-12-07T03:26:00;9.63;;;8.73;;
57551;SDS011;43379;48.160;14.036;2022-12-07T03:28:31;9.23;;;8.43;;
57551;SDS011;43379;48.160;14.036;2022-12-07T03:31:03;9.50;;;8.60;;
57551;SDS011;43379;48.160;14.036;2022-12-07T03:39:03;7.63;;;7.03;;
57551;SDS011;43379;48.160;14.036;2022-12-07T03:41:45;9.10;;;8.20;;
57551;SDS011;43379;48.160;14.036;2022-12-07T03:44:11;8.57;;;7.73;;
57551;SDS011;43379;48.160;14.036;2022-12-07T03:49:51;7.53;;;6.93;;
57551;SDS011;43379;48.160;14.036;2022-12-07T03:55:06;8.80;;;8.00;;
57551;SDS011;43379;48.160;14.036;2022-12-07T03:57:33;8.60;;;7.80;;
57551;SDS011;43379;48.160;14.036;2022-12-07T04:00:03;8.70;;;7.90;;
57551;SDS011;43379;48.160;14.036;2022-12-07T04:02:30;7.70;;;7.10;;
57551;SDS011;43379;48.160;14.036;2022-12-07T04:04:57;7.73;;;6.93;;
57551;SDS011;43379;48.160;14.036;2022-12-07T04:07:22;8.20;;;7.50;;
57551;SDS011;43379;48.160;14.036;2022-12-07T04:09:48;8.47;;;7.77;;
57551;SDS011;43379;48.160;14.036;2022-12-07T04:12:14;8.67;;;7.97;;
57551;SDS011;43379;48.160;14.036;2022-12-07T04:14:39;8.00;;;7.30;;
57551;SDS011;43379;48.160;14.036;2022-12-07T04:17:05;8.17;;;7.37;;
57551;SDS011;43379;48.160;14.036;2022-12-07T04:19:32;8.20;;;7.50;;
57551;SDS011;43379;48.160;14.036;2022-12-07T04:21:59;8.37;;;7.57;;
57551;SDS011;43379;48.160;14.036;2022-12-07T04:24:26;7.93;;;7.13;;
57551;SDS011;43379;48.160;14.036;2022-12-07T04:26:52;9.03;;;8.20;;
57551;SDS011;43379;48.160;14.036;2022-12-07T04:29:18;8.60;;;7.80;;
57551;SDS011;43379;48.160;14.036;2022-12-07T04:31:44;17.03;;;8.87;;
57551;SDS011;43379;48.160;14.036;2022-12-07T04:34:11;9.30;;;8.50;;
57551;SDS011;43379;48.160;14.036;2022-12-07T04:36:37;9.43;;;8.63;;
57551;SDS011;43379;48.160;14.036;2022-12-07T04:39:04;9.07;;;8.27;;
57551;SDS011;43379;48.160;14.036;2022-12-07T04:41:31;10.80;;;9.80;;
57551;SDS011;43379;48.160;14.036;2022-12-07T04:43:58;10.37;;;9.33;;
57551;SDS011;43379;48.160;14.036;2022-12-07T04:46:25;9.80;;;9.00;;
57551;SDS011;43379;48.160;14.036;2022-12-07T04:48:51;9.90;;;9.00;;
57551;SDS011;43379;48.160;14.036;2022-12-07T04:51:27;9.47;;;8.57;;
57551;SDS011;43379;48.160;14.036;2022-12-07T04:53:54;10.57;;;9.57;;
57551;SDS011;43379;48.160;14.036;2022-12-07T04:56:20;11.23;;;10.10;;
57551;SDS011;43379;48.160;14.036;2022-12-07T04:58:47;13.50;;;11.10;;
57551;SDS011;43379;48.160;14.036;2022-12-07T05:01:13;11.33;;;10.23;;
57551;SDS011;43379;48.160;14.036;2022-12-07T05:03:40;10.60;;;9.50;;
57551;SDS011;43379;48.160;14.036;2022-12-07T05:06:06;10.90;;;9.87;;
57551;SDS011;43379;48.160;14.036;2022-12-07T05:08:33;13.10;;;11.70;;
57551;SDS011;43379;48.160;14.036;2022-12-07T05:10:59;12.47;;;11.17;;
57551;SDS011;43379;48.160;14.036;2022-12-07T05:13:25;12.47;;;11.23;;
57551;SDS011;43379;48.160;14.036;2022-12-07T05:15:51;14.90;;;11.10;;
57551;SDS011;43379;48.160;14.036;2022-12-07T05:18:16;12.20;;;11.03;;
57551;SDS011;43379;48.160;14.036;2022-12-07T05:20:42;13.30;;;12.10;;
57551;SDS011;43379;48.160;14.036;2022-12-07T05:23:09;12.10;;;10.83;;
57551;SDS011;43379;48.160;14.036;2022-12-07T05:25:34;11.60;;;10.60;;
57551;SDS011;43379;48.160;14.036;2022-12-07T05:28:01;11.43;;;10.33;;
57551;SDS011;43379;48.160;14.036;2022-12-07T05:30:27;12.90;;;11.60;;
57551;SDS011;43379;48.160;14.036;2022-12-07T05:32:53;11.60;;;10.50;;
57551;SDS011;43379;48.160;14.036;2022-12-07T05:35:19;13.53;;;11.33;;
57551;SDS011;43379;48.160;14.036;2022-12-07T05:37:45;11.70;;;10.70;;
57551;SDS011;43379;48.160;14.036;2022-12-07T05:40:12;13.00;;;11.63;;
57551;SDS011;43379;48.160;14.036;2022-12-07T05:42:39;12.90;;;11.60;;
57551;SDS011;43379;48.160;14.036;2022-12-07T05:45:06;14.57;;;13.17;;
57551;SDS011;43379;48.160;14.036;2022-12-07T05:47:32;14.60;;;13.10;;
57551;SDS011;43379;48.160;14.036;2022-12-07T05:49:57;13.90;;;12.60;;
57551;SDS011;43379;48.160;14.036;2022-12-07T05:52:23;13.63;;;12.30;;
57551;SDS011;43379;48.160;14.036;2022-12-07T05:54:49;12.53;;;11.43;;
57551;SDS011;43379;48.160;14.036;2022-12-07T05:57:15;13.50;;;12.10;;
57551;SDS011;43379;48.160;14.036;2022-12-07T05:59:40;13.97;;;12.40;;
57551;SDS011;43379;48.160;14.036;2022-12-07T06:02:07;14.10;;;12.70;;
57551;SDS011;43379;48.160;14.036;2022-12-07T06:04:37;12.67;;;11.47;;
57551;SDS011;43379;48.160;14.036;2022-12-07T06:07:05;12.80;;;11.67;;
57551;SDS011;43379;48.160;14.036;2022-12-07T06:09:31;13.37;;;12.17;;
57551;SDS011;43379;48.160;14.036;2022-12-07T06:11:57;11.97;;;10.83;;
57551;SDS011;43379;48.160;14.036;2022-12-07T06:14:42;12.37;;;11.17;;
57551;SDS011;43379;48.160;14.036;2022-12-07T06:17:07;13.17;;;11.87;;
57551;SDS011;43379;48.160;14.036;2022-12-07T06:19:34;11.43;;;10.43;;
57551;SDS011;43379;48.160;14.036;2022-12-07T06:22:00;12.13;;;10.67;;
57551;SDS011;43379;48.160;14.036;2022-12-07T06:24:26;10.97;;;9.87;;
57551;SDS011;43379;48.160;14.036;2022-12-07T06:26:52;10.87;;;9.87;;
57551;SDS011;43379;48.160;14.036;2022-12-07T06:29:17;11.97;;;10.77;;
57551;SDS011;43379;48.160;14.036;2022-12-07T06:31:44;10.83;;;9.90;;
57551;SDS011;43379;48.160;14.036;2022-12-07T06:34:11;10.50;;;9.50;;
57551;SDS011;43379;48.160;14.036;2022-12-07T06:36:38;10.57;;;9.67;;
57551;SDS011;43379;48.160;14.036;2022-12-07T06:39:04;11.20;;;10.10;;
57551;SDS011;43379;48.160;14.036;2022-12-07T06:41:30;9.93;;;9.03;;
57551;SDS011;43379;48.160;14.036;2022-12-07T06:43:56;9.77;;;8.90;;
57551;SDS011;43379;48.160;14.036;2022-12-07T06:46:22;10.43;;;8.67;;
57551;SDS011;43379;48.160;14.036;2022-12-07T06:48:48;10.97;;;9.97;;
57551;SDS011;43379;48.160;14.036;2022-12-07T06:51:14;10.60;;;9.60;;
57551;SDS011;43379;48.160;14.036;2022-12-07T06:53:40;11.20;;;10.10;;
57551;SDS011;43379;48.160;14.036;2022-12-07T06:56:06;12.10;;;11.10;;
57551;SDS011;43379;48.160;14.036;2022-12-07T06:58:31;13.80;;;12.40;;
57551;SDS011;43379;48.160;14.036;2022-12-07T07:00:57;12.90;;;11.70;;
57551;SDS011;43379;48.160;14.036;2022-12-07T07:03:23;12.17;;;11.07;;
57551;SDS011;43379;48.160;14.036;2022-12-07T07:05:49;11.70;;;10.50;;
57551;SDS011;43379;48.160;14.036;2022-12-07T07:08:15;10.70;;;9.63;;
57551;SDS011;43379;48.160;14.036;2022-12-07T07:10:41;11.60;;;10.30;;
57551;SDS011;43379;48.160;14.036;2022-12-07T07:13:06;11.43;;;10.33;;
57551;SDS011;43379;48.160;14.036;2022-12-07T07:15:33;13.70;;;11.23;;
57551;SDS011;43379;48.160;14.036;2022-12-07T07:17:59;11.17;;;10.07;;
57551;SDS011;43379;48.160;14.036;2022-12-07T07:20:25;13.67;;;10.50;;
57551;SDS011;43379;48.160;14.036;2022-12-07T07:22:53;10.50;;;9.40;;
57551;SDS011;43379;48.160;14.036;2022-12-07T07:25:20;13.77;;;11.10;;
57551;SDS011;43379;48.160;14.036;2022-12-07T07:27:46;10.27;;;9.27;;
57551;SDS011;43379;48.160;14.036;2022-12-07T07:30:11;13.70;;;10.80;;
57551;SDS011;43379;48.160;14.036;2022-12-07T07:32:37;12.33;;;10.20;;
57551;SDS011;43379;48.160;14.036;2022-12-07T07:35:03;14.50;;;11.13;;
57551;SDS011;43379;48.160;14.036;2022-12-07T07:37:29;15.03;;;10.00;;
57551;SDS011;43379;48.160;14.036;2022-12-07T07:39:54;10.83;;;9.73;;
57551;SDS011;43379;48.160;14.036;2022-12-07T07:42:20;10.70;;;9.67;;
57551;SDS011;43379;48.160;14.036;2022-12-07T07:44:46;12.17;;;10.97;;
57551;SDS011;43379;48.160;14.036;2022-12-07T07:47:12;11.97;;;10.87;;
57551;SDS011;43379;48.160;14.036;2022-12-07T07:49:37;11.63;;;10.43;;
57551;SDS011;43379;48.160;14.036;2022-12-07T07:52:03;11.90;;;9.60;;
57551;SDS011;43379;48.160;14.036;2022-12-07T07:54:31;11.90;;;10.70;;
57551;SDS011;43379;48.160;14.036;2022-12-07T07:56:57;11.83;;;9.57;;
57551;SDS011;43379;48.160;14.036;2022-12-07T07:59:24;11.27;;;10.17;;
57551;SDS011;43379;48.160;14.036;2022-12-07T08:01:50;10.70;;;9.60;;
57551;SDS011;43379;48.160;14.036;2022-12-07T08:04:16;9.83;;;8.83;;
57551;SDS011;43379;48.160;14.036;2022-12-07T08:06:41;10.47;;;9.47;;
57551;SDS011;43379;48.160;14.036;2022-12-07T08:09:08;12.40;;;10.07;;
57551;SDS011;43379;48.160;14.036;2022-12-07T08:11:34;12.60;;;9.77;;
57551;SDS011;43379;48.160;14.036;2022-12-07T08:14:01;11.40;;;10.20;;
57551;SDS011;43379;48.160;14.036;2022-12-07T08:16:27;11.10;;;9.60;;
57551;SDS011;43379;48.160;14.036;2022-12-07T08:18:52;11.43;;;10.27;;
57551;SDS011;43379;48.160;14.036;2022-12-07T08:21:18;12.40;;;11.20;;
57551;SDS011;43379;48.160;14.036;2022-12-07T08:23:44;10.03;;;9.00;;
57551;SDS011;43379;48.160;14.036;2022-12-07T08:26:11;10.50;;;9.10;;
57551;SDS011;43379;48.160;14.036;2022-12-07T08:28:38;9.53;;;8.60;;
57551;SDS011;43379;48.160;14.036;2022-12-07T08:31:06;10.20;;;9.10;;
57551;SDS011;43379;48.160;14.036;2022-12-07T08:33:34;10.40;;;9.03;;
57551;SDS011;43379;48.160;14.036;2022-12-07T08:36:01;10.10;;;9.03;;
57551;SDS011;43379;48.160;14.036;2022-12-07T08:38:31;10.00;;;9.00;;
57551;SDS011;43379;48.160;14.036;2022-12-07T08:40:59;9.50;;;8.60;;
57551;SDS011;43379;48.160;14.036;2022-12-07T08:43:25;10.73;;;9.63;;
57551;SDS011;43379;48.160;14.036;2022-12-07T08:46:01;9.77;;;8.87;;
57551;SDS011;43379;48.160;14.036;2022-12-07T08:48:29;9.88;;;8.98;;
57551;SDS011;43379;48.160;14.036;2022-12-07T08:50:55;10.35;;;9.43;;
57551;SDS011;43379;48.160;14.036;2022-12-07T08:53:22;11.13;;;9.70;;
57551;SDS011;43379;48.160;14.036;2022-12-07T08:55:48;10.23;;;9.33;;
57551;SDS011;43379;48.160;14.036;2022-12-07T08:58:14;13.93;;;9.20;;
57551;SDS011;43379;48.160;14.036;2022-12-07T09:00:40;9.63;;;8.73;;
57551;SDS011;43379;48.160;14.036;2022-12-07T09:03:05;11.07;;;9.90;;
57551;SDS011;43379;48.160;14.036;2022-12-07T09:05:32;10.17;;;9.17;;
57551;SDS011;43379;48.160;14.036;2022-12-07T09:07:59;14.00;;;10.23;;
57551;SDS011;43379;48.160;14.036;2022-12-07T09:10:26;10.77;;;9.63;;
57551;SDS011;43379;48.160;14.036;2022-12-07T09:12:53;10.03;;;9.03;;
57551;SDS011;43379;48.160;14.036;2022-12-07T09:15:19;11.10;;;10.00;;
57551;SDS011;43379;48.160;14.036;2022-12-07T09:17:44;9.63;;;8.73;;
57551;SDS011;43379;48.160;14.036;2022-12-07T09:20:10;11.17;;;10.00;;
57551;SDS011;43379;48.160;14.036;2022-12-07T09:22:36;11.50;;;9.83;;
57551;SDS011;43379;48.160;14.036;2022-12-07T09:25:02;9.93;;;8.97;;
57551;SDS011;43379;48.160;14.036;2022-12-07T09:27:29;11.67;;;10.40;;
57551;SDS011;43379;48.160;14.036;2022-12-07T09:29:55;11.83;;;10.27;;
57551;SDS011;43379;48.160;14.036;2022-12-07T09:32:21;15.13;;;11.40;;
57551;SDS011;43379;48.160;14.036;2022-12-07T09:34:47;12.30;;;11.00;;
57551;SDS011;43379;48.160;14.036;2022-12-07T09:37:13;12.40;;;11.20;;
57551;SDS011;43379;48.160;14.036;2022-12-07T09:39:39;13.80;;;12.00;;
57551;SDS011;43379;48.160;14.036;2022-12-07T09:42:05;11.23;;;10.13;;
57551;SDS011;43379;48.160;14.036;2022-12-07T09:44:33;12.80;;;11.60;;
57551;SDS011;43379;48.160;14.036;2022-12-07T09:46:59;11.67;;;10.53;;
57551;SDS011;43379;48.160;14.036;2022-12-07T09:49:27;13.30;;;11.37;;
57551;SDS011;43379;48.160;14.036;2022-12-07T09:54:33;13.90;;;12.40;;
57551;SDS011;43379;48.160;14.036;2022-12-07T09:57:11;13.53;;;12.13;;
57551;SDS011;43379;48.160;14.036;2022-12-07T09:59:40;12.60;;;11.40;;
57551;SDS011;43379;48.160;14.036;2022-12-07T10:04:51;11.87;;;10.60;;
57551;SDS011;43379;48.160;14.036;2022-12-07T10:07:17;10.90;;;10.00;;
57551;SDS011;43379;48.160;14.036;2022-12-07T10:09:44;12.13;;;11.00;;
57551;SDS011;43379;48.160;14.036;2022-12-07T10:12:11;11.23;;;10.13;;
57551;SDS011;43379;48.160;14.036;2022-12-07T10:14:38;10.13;;;9.13;;
57551;SDS011;43379;48.160;14.036;2022-12-07T10:17:36;10.87;;;9.77;;
57551;SDS011;43379;48.160;14.036;2022-12-07T10:20:24;11.20;;;10.10;;
57551;SDS011;43379;48.160;14.036;2022-12-07T10:25:26;10.63;;;9.50;;
57551;SDS011;43379;48.160;14.036;2022-12-07T10:28:18;11.60;;;10.40;;
57551;SDS011;43379;48.160;14.036;2022-12-07T10:30:59;14.03;;;10.73;;
57551;SDS011;43379;48.160;14.036;2022-12-07T10:35:54;11.43;;;10.30;;
57551;SDS011;43379;48.160;14.036;2022-12-07T10:38:20;11.47;;;10.30;;
57551;SDS011;43379;48.160;14.036;2022-12-07T10:40:46;11.50;;;10.30;;
57551;SDS011;43379;48.160;14.036;2022-12-07T10:53:28;12.57;;;11.30;;
57551;SDS011;43379;48.160;14.036;2022-12-07T10:56:24;12.23;;;11.10;;
57551;SDS011;43379;48.160;14.036;2022-12-07T11:13:03;12.43;;;11.13;;
57551;SDS011;43379;48.160;14.036;2022-12-07T11:21:23;11.17;;;10.07;;
57551;SDS011;43379;48.160;14.036;2022-12-07T11:29:33;12.60;;;11.40;;
57551;SDS011;43379;48.160;14.036;2022-12-07T11:35:26;8.93;;;8.03;;
57551;SDS011;43379;48.160;14.036;2022-12-07T11:37:58;8.23;;;7.43;;
57551;SDS011;43379;48.160;14.036;2022-12-07T11:40:33;8.23;;;7.43;;
57551;SDS011;43379;48.160;14.036;2022-12-07T11:43:05;7.17;;;6.50;;
57551;SDS011;43379;48.160;14.036;2022-12-07T11:45:43;9.38;;;8.02;;
57551;SDS011;43379;48.160;14.036;2022-12-07T11:50:42;8.90;;;7.83;;
57551;SDS011;43379;48.160;14.036;2022-12-07T12:04:25;9.20;;;8.30;;
57551;SDS011;43379;48.160;14.036;2022-12-07T12:06:31;10.60;;;9.60;;
57551;SDS011;43379;48.160;14.036;2022-12-07T12:20:13;11.10;;;9.90;;
57551;SDS011;43379;48.160;14.036;2022-12-07T12:22:58;9.40;;;8.50;;
57551;SDS011;43379;48.160;14.036;2022-12-07T12:25:39;10.23;;;9.33;;
57551;SDS011;43379;48.160;14.036;2022-12-07T12:31:30;9.27;;;8.37;;
57551;SDS011;43379;48.160;14.036;2022-12-07T12:33:58;10.07;;;9.17;;
57551;SDS011;43379;48.160;14.036;2022-12-07T12:39:18;9.80;;;8.80;;
57551;SDS011;43379;48.160;14.036;2022-12-07T12:46:48;10.50;;;9.40;;
57551;SDS011;43379;48.160;14.036;2022-12-07T12:51:46;9.77;;;8.97;;
57551;SDS011;43379;48.160;14.036;2022-12-07T12:54:15;11.53;;;10.43;;
57551;SDS011;43379;48.160;14.036;2022-12-07T13:13:35;8.60;;;7.77;;
57551;SDS011;43379;48.160;14.036;2022-12-07T13:15:39;7.50;;;6.80;;
57551;SDS011;43379;48.160;14.036;2022-12-07T13:20:56;9.20;;;8.30;;
57551;SDS011;43379;48.160;14.036;2022-12-07T13:28:38;9.70;;;8.63;;
57551;SDS011;43379;48.160;14.036;2022-12-07T13:33:55;9.60;;;8.60;;
57551;SDS011;43379;48.160;14.036;2022-12-07T13:36:22;11.30;;;10.13;;
57551;SDS011;43379;48.160;14.036;2022-12-07T13:38:52;10.33;;;9.27;;
57551;SDS011;43379;48.160;14.036;2022-12-07T13:41:20;11.47;;;10.40;;
57551;SDS011;43379;48.160;14.036;2022-12-07T13:43:49;10.47;;;9.37;;
57551;SDS011;43379;48.160;14.036;2022-12-07T13:46:31;10.37;;;9.37;;
57551;SDS011;43379;48.160;14.036;2022-12-07T13:49:15;10.87;;;9.77;;
57551;SDS011;43379;48.160;14.036;2022-12-07T13:51:43;9.50;;;8.60;;
57551;SDS011;43379;48.160;14.036;2022-12-07T13:54:10;10.93;;;9.77;;
57551;SDS011;43379;48.160;14.036;2022-12-07T13:56:37;12.17;;;10.90;;
57551;SDS011;43379;48.160;14.036;2022-12-07T13:59:14;11.17;;;9.83;;
57551;SDS011;43379;48.160;14.036;2022-12-07T14:01:44;10.80;;;9.30;;
57551;SDS011;43379;48.160;14.036;2022-12-07T14:04:16;12.03;;;9.03;;
57551;SDS011;43379;48.160;14.036;2022-12-07T14:06:50;10.37;;;9.17;;
57551;SDS011;43379;48.160;14.036;2022-12-07T14:09:17;14.15;;;9.75;;
57551;SDS011;43379;48.160;14.036;2022-12-07T14:11:45;10.10;;;9.00;;
57551;SDS011;43379;48.160;14.036;2022-12-07T14:14:15;10.97;;;9.37;;
57551;SDS011;43379;48.160;14.036;2022-12-07T14:16:43;10.00;;;9.00;;
57551;SDS011;43379;48.160;14.036;2022-12-07T14:22:29;10.10;;;8.60;;
57551;SDS011;43379;48.160;14.036;2022-12-07T14:27:34;9.63;;;8.63;;
57551;SDS011;43379;48.160;14.036;2022-12-07T14:30:01;10.80;;;8.40;;
57551;SDS011;43379;48.160;14.036;2022-12-07T14:32:28;11.27;;;9.67;;
57551;SDS011;43379;48.160;14.036;2022-12-07T14:34:59;10.13;;;8.63;;
57551;SDS011;43379;48.160;14.036;2022-12-07T14:37:36;11.10;;;8.27;;
57551;SDS011;43379;48.160;14.036;2022-12-07T14:40:02;9.57;;;8.63;;
57551;SDS011;43379;48.160;14.036;2022-12-07T14:42:29;8.60;;;7.77;;
57551;SDS011;43379;48.160;14.036;2022-12-07T14:44:56;9.50;;;8.50;;
57551;SDS011;43379;48.160;14.036;2022-12-07T14:47:23;9.30;;;7.97;;
57551;SDS011;43379;48.160;14.036;2022-12-07T14:49:52;11.10;;;9.77;;
57551;SDS011;43379;48.160;14.036;2022-12-07T14:52:27;9.90;;;8.83;;
57551;SDS011;43379;48.160;14.036;2022-12-07T14:54:55;11.57;;;10.33;;
57551;SDS011;43379;48.160;14.036;2022-12-07T14:57:20;11.00;;;9.90;;
57551;SDS011;43379;48.160;14.036;2022-12-07T14:59:46;10.50;;;9.50;;
57551;SDS011;43379;48.160;14.036;2022-12-07T15:02:12;12.37;;;10.37;;
57551;SDS011;43379;48.160;14.036;2022-12-07T15:04:39;10.30;;;9.13;;
57551;SDS011;43379;48.160;14.036;2022-12-07T15:07:06;9.50;;;8.70;;
57551;SDS011;43379;48.160;14.036;2022-12-07T15:09:38;10.00;;;8.83;;
57551;SDS011;43379;48.160;14.036;2022-12-07T15:12:04;10.00;;;9.00;;
57551;SDS011;43379;48.160;14.036;2022-12-07T15:14:29;10.60;;;9.50;;
57551;SDS011;43379;48.160;14.036;2022-12-07T15:16:55;10.87;;;9.57;;
57551;SDS011;43379;48.160;14.036;2022-12-07T15:19:22;11.00;;;9.97;;
57551;SDS011;43379;48.160;14.036;2022-12-07T15:21:50;9.67;;;8.87;;
57551;SDS011;43379;48.160;14.036;2022-12-07T15:24:17;10.33;;;9.20;;
57551;SDS011;43379;48.160;14.036;2022-12-07T15:26:43;14.63;;;8.73;;
57551;SDS011;43379;48.160;14.036;2022-12-07T15:29:09;10.30;;;9.30;;
57551;SDS011;43379;48.160;14.036;2022-12-07T15:31:36;12.13;;;9.90;;
57551;SDS011;43379;48.160;14.036;2022-12-07T15:34:02;15.13;;;10.83;;
57551;SDS011;43379;48.160;14.036;2022-12-07T15:36:30;11.70;;;9.63;;
57551;SDS011;43379;48.160;14.036;2022-12-07T15:38:56;9.63;;;8.60;;
57551;SDS011;43379;48.160;14.036;2022-12-07T15:41:22;11.37;;;10.27;;
57551;SDS011;43379;48.160;14.036;2022-12-07T15:43:48;13.80;;;10.97;;
57551;SDS011;43379;48.160;14.036;2022-12-07T15:46:34;13.10;;;11.07;;
57551;SDS011;43379;48.160;14.036;2022-12-07T15:49:02;13.07;;;11.67;;
57551;SDS011;43379;48.160;14.036;2022-12-07T15:51:29;16.58;;;14.90;;
57551;SDS011;43379;48.160;14.036;2022-12-07T15:53:54;13.97;;;12.63;;
57551;SDS011;43379;48.160;14.036;2022-12-07T15:56:22;13.73;;;12.33;;
57551;SDS011;43379;48.160;14.036;2022-12-07T15:58:47;14.57;;;12.93;;
57551;SDS011;43379;48.160;14.036;2022-12-07T16:01:14;13.37;;;11.43;;
57551;SDS011;43379;48.160;14.036;2022-12-07T16:03:44;15.10;;;13.43;;
57551;SDS011;43379;48.160;14.036;2022-12-07T16:06:11;13.40;;;12.03;;
57551;SDS011;43379;48.160;14.036;2022-12-07T16:08:40;12.27;;;11.00;;
57551;SDS011;43379;48.160;14.036;2022-12-07T16:11:08;13.40;;;11.90;;
57551;SDS011;43379;48.160;14.036;2022-12-07T16:13:34;11.63;;;10.43;;
57551;SDS011;43379;48.160;14.036;2022-12-07T16:16:03;11.27;;;10.07;;
57551;SDS011;43379;48.160;14.036;2022-12-07T16:18:34;10.93;;;9.40;;
57551;SDS011;43379;48.160;14.036;2022-12-07T16:21:00;11.27;;;10.10;;
57551;SDS011;43379;48.160;14.036;2022-12-07T16:23:26;13.27;;;11.27;;
57551;SDS011;43379;48.160;14.036;2022-12-07T16:25:52;11.13;;;10.00;;
57551;SDS011;43379;48.160;14.036;2022-12-07T16:28:18;10.87;;;9.87;;
57551;SDS011;43379;48.160;14.036;2022-12-07T16:30:44;13.45;;;11.10;;
57551;SDS011;43379;48.160;14.036;2022-12-07T16:33:10;11.83;;;10.73;;
57551;SDS011;43379;48.160;14.036;2022-12-07T16:35:39;11.47;;;10.47;;
57551;SDS011;43379;48.160;14.036;2022-12-07T16:38:08;10.77;;;9.77;;
57551;SDS011;43379;48.160;14.036;2022-12-07T16:40:34;11.83;;;10.60;;
57551;SDS011;43379;48.160;14.036;2022-12-07T16:43:00;15.00;;;11.17;;
57551;SDS011;43379;48.160;14.036;2022-12-07T16:45:25;13.20;;;11.93;;
57551;SDS011;43379;48.160;14.036;2022-12-07T16:47:51;13.37;;;11.57;;
57551;SDS011;43379;48.160;14.036;2022-12-07T16:50:17;11.73;;;10.60;;
57551;SDS011;43379;48.160;14.036;2022-12-07T16:52:43;11.93;;;10.83;;
57551;SDS011;43379;48.160;14.036;2022-12-07T16:55:08;12.30;;;11.00;;
57551;SDS011;43379;48.160;14.036;2022-12-07T16:57:34;11.40;;;10.20;;
57551;SDS011;43379;48.160;14.036;2022-12-07T17:00:00;11.13;;;9.93;;
57551;SDS011;43379;48.160;14.036;2022-12-07T17:02:25;15.30;;;10.50;;